sensor_id;sensor_type;location;lat;lon;timestamp;temperature;humidity
40538;DHT22;27925;41.874;12.526;2022-09-12T00:01:05;24.40;68.00
40538;DHT22;27925;41.874;12.526;2022-09-12T00:03:31;24.30;67.90
40538;DHT22;27925;41.874;12.526;2022-09-12T00:05:57;24.30;67.60
40538;DHT22;27925;41.874;12.526;2022-09-12T00:08:22;24.20;67.60
40538;DHT22;27925;41.874;12.526;2022-09-12T00:10:48;24.20;67.60
40538;DHT22;27925;41.874;12.526;2022-09-12T00:13:14;24.20;67.60
40538;DHT22;27925;41.874;12.526;2022-09-12T00:15:41;24.20;67.70
40538;DHT22;27925;41.874;12.526;2022-09-12T00:18:14;24.20;68.00
40538;DHT22;27925;41.874;12.526;2022-09-12T00:20:44;24.10;67.80
40538;DHT22;27925;41.874;12.526;2022-09-12T00:23:10;24.10;67.80
40538;DHT22;27925;41.874;12.526;2022-09-12T00:25:46;24.00;67.50
40538;DHT22;27925;41.874;12.526;2022-09-12T00:28:14;24.00;67.40
40538;DHT22;27925;41.874;12.526;2022-09-12T00:30:46;24.00;67.30
40538;DHT22;27925;41.874;12.526;2022-09-12T00:33:13;24.00;67.40
40538;DHT22;27925;41.874;12.526;2022-09-12T00:35:46;24.00;67.20
40538;DHT22;27925;41.874;12.526;2022-09-12T00:38:14;23.90;66.30
40538;DHT22;27925;41.874;12.526;2022-09-12T00:40:41;23.90;67.30
40538;DHT22;27925;41.874;12.526;2022-09-12T00:46:01;23.90;66.60
40538;DHT22;27925;41.874;12.526;2022-09-12T00:48:41;23.90;67.50
40538;DHT22;27925;41.874;12.526;2022-09-12T00:51:08;23.90;67.90
40538;DHT22;27925;41.874;12.526;2022-09-12T00:53:34;23.90;67.90
40538;DHT22;27925;41.874;12.526;2022-09-12T00:56:01;23.90;67.90
40538;DHT22;27925;41.874;12.526;2022-09-12T00:58:49;23.80;67.90
40538;DHT22;27925;41.874;12.526;2022-09-12T01:01:16;23.70;67.50
40538;DHT22;27925;41.874;12.526;2022-09-12T01:03:43;23.70;68.60
40538;DHT22;27925;41.874;12.526;2022-09-12T01:06:17;23.70;68.60
40538;DHT22;27925;41.874;12.526;2022-09-12T01:08:46;23.70;67.90
40538;DHT22;27925;41.874;12.526;2022-09-12T01:11:13;23.70;68.70
40538;DHT22;27925;41.874;12.526;2022-09-12T01:13:40;23.60;68.60
40538;DHT22;27925;41.874;12.526;2022-09-12T01:16:07;23.60;68.30
40538;DHT22;27925;41.874;12.526;2022-09-12T01:18:58;23.50;68.40
40538;DHT22;27925;41.874;12.526;2022-09-12T01:35:00;23.40;68.10
40538;DHT22;27925;41.874;12.526;2022-09-12T01:37:41;23.30;67.60
40538;DHT22;27925;41.874;12.526;2022-09-12T01:40:14;23.30;67.40
40538;DHT22;27925;41.874;12.526;2022-09-12T01:45:28;23.40;67.40
40538;DHT22;27925;41.874;12.526;2022-09-12T01:48:19;23.40;67.10
40538;DHT22;27925;41.874;12.526;2022-09-12T01:50:51;23.40;66.00
40538;DHT22;27925;41.874;12.526;2022-09-12T01:53:27;23.30;66.70
40538;DHT22;27925;41.874;12.526;2022-09-12T01:56:06;23.30;66.60
40538;DHT22;27925;41.874;12.526;2022-09-12T01:59:04;23.20;66.00
40538;DHT22;27925;41.874;12.526;2022-09-12T02:01:35;23.20;66.60
40538;DHT22;27925;41.874;12.526;2022-09-12T02:04:37;23.20;66.50
40538;DHT22;27925;41.874;12.526;2022-09-12T02:07:13;23.20;66.60
40538;DHT22;27925;41.874;12.526;2022-09-12T02:10:01;23.20;66.50
40538;DHT22;27925;41.874;12.526;2022-09-12T02:12:38;23.20;66.60
40538;DHT22;27925;41.874;12.526;2022-09-12T02:15:08;23.10;65.40
40538;DHT22;27925;41.874;12.526;2022-09-12T02:17:40;23.10;66.30
40538;DHT22;27925;41.874;12.526;2022-09-12T02:20:17;23.10;66.50
40538;DHT22;27925;41.874;12.526;2022-09-12T02:22:47;23.10;65.60
40538;DHT22;27925;41.874;12.526;2022-09-12T02:25:16;23.00;66.30
40538;DHT22;27925;41.874;12.526;2022-09-12T02:28:08;23.00;66.50
40538;DHT22;27925;41.874;12.526;2022-09-12T02:30:41;23.00;66.60
40538;DHT22;27925;41.874;12.526;2022-09-12T02:33:19;23.00;66.70
40538;DHT22;27925;41.874;12.526;2022-09-12T02:36:06;22.90;66.40
40538;DHT22;27925;41.874;12.526;2022-09-12T02:38:41;22.90;65.40
40538;DHT22;27925;41.874;12.526;2022-09-12T02:41:09;22.80;66.60
40538;DHT22;27925;41.874;12.526;2022-09-12T02:43:35;22.80;66.70
40538;DHT22;27925;41.874;12.526;2022-09-12T02:46:04;22.70;66.70
40538;DHT22;27925;41.874;12.526;2022-09-12T02:48:36;22.70;66.90
40538;DHT22;27925;41.874;12.526;2022-09-12T02:51:02;22.70;66.90
40538;DHT22;27925;41.874;12.526;2022-09-12T02:53:28;22.70;66.80
40538;DHT22;27925;41.874;12.526;2022-09-12T02:55:54;22.70;67.00
40538;DHT22;27925;41.874;12.526;2022-09-12T02:58:23;22.60;67.00
40538;DHT22;27925;41.874;12.526;2022-09-12T03:00:59;22.60;67.60
40538;DHT22;27925;41.874;12.526;2022-09-12T03:04:05;22.60;66.20
40538;DHT22;27925;41.874;12.526;2022-09-12T03:09:16;22.60;65.90
40538;DHT22;27925;41.874;12.526;2022-09-12T03:11:54;22.50;66.80
40538;DHT22;27925;41.874;12.526;2022-09-12T03:19:58;22.50;65.70
40538;DHT22;27925;41.874;12.526;2022-09-12T03:28:03;22.60;66.60
40538;DHT22;27925;41.874;12.526;2022-09-12T03:30:52;22.50;65.50
40538;DHT22;27925;41.874;12.526;2022-09-12T03:33:23;22.50;66.30
40538;DHT22;27925;41.874;12.526;2022-09-12T03:35:50;22.60;66.50
40538;DHT22;27925;41.874;12.526;2022-09-12T03:38:17;22.50;66.60
40538;DHT22;27925;41.874;12.526;2022-09-12T03:40:43;22.50;66.30
40538;DHT22;27925;41.874;12.526;2022-09-12T03:43:09;22.50;66.20
40538;DHT22;27925;41.874;12.526;2022-09-12T03:45:36;22.50;66.30
40538;DHT22;27925;41.874;12.526;2022-09-12T03:48:03;22.40;66.10
40538;DHT22;27925;41.874;12.526;2022-09-12T03:50:28;22.40;66.40
40538;DHT22;27925;41.874;12.526;2022-09-12T03:52:54;22.30;66.30
40538;DHT22;27925;41.874;12.526;2022-09-12T03:55:20;22.40;66.40
40538;DHT22;27925;41.874;12.526;2022-09-12T03:57:46;22.30;66.30
40538;DHT22;27925;41.874;12.526;2022-09-12T04:00:12;22.30;66.50
40538;DHT22;27925;41.874;12.526;2022-09-12T04:02:37;22.30;66.40
40538;DHT22;27925;41.874;12.526;2022-09-12T04:05:04;22.30;66.40
40538;DHT22;27925;41.874;12.526;2022-09-12T04:07:30;22.30;66.30
40538;DHT22;27925;41.874;12.526;2022-09-12T04:09:55;22.30;66.40
40538;DHT22;27925;41.874;12.526;2022-09-12T04:12:21;22.30;66.30
40538;DHT22;27925;41.874;12.526;2022-09-12T04:14:47;22.30;66.30
40538;DHT22;27925;41.874;12.526;2022-09-12T04:17:14;22.30;66.50
40538;DHT22;27925;41.874;12.526;2022-09-12T04:19:40;22.30;66.70
40538;DHT22;27925;41.874;12.526;2022-09-12T04:22:06;22.20;66.50
40538;DHT22;27925;41.874;12.526;2022-09-12T04:24:31;22.20;66.70
40538;DHT22;27925;41.874;12.526;2022-09-12T04:26:57;22.20;67.00
40538;DHT22;27925;41.874;12.526;2022-09-12T04:29:23;22.20;66.90
40538;DHT22;27925;41.874;12.526;2022-09-12T04:31:49;22.20;67.00
40538;DHT22;27925;41.874;12.526;2022-09-12T04:34:15;22.20;67.30
40538;DHT22;27925;41.874;12.526;2022-09-12T04:36:41;22.20;67.20
40538;DHT22;27925;41.874;12.526;2022-09-12T04:39:07;22.20;67.40
40538;DHT22;27925;41.874;12.526;2022-09-12T04:41:37;22.20;67.40
40538;DHT22;27925;41.874;12.526;2022-09-12T04:44:13;22.10;67.80
40538;DHT22;27925;41.874;12.526;2022-09-12T04:46:42;22.10;67.60
40538;DHT22;27925;41.874;12.526;2022-09-12T04:49:09;22.10;68.00
40538;DHT22;27925;41.874;12.526;2022-09-12T04:51:37;22.10;67.90
40538;DHT22;27925;41.874;12.526;2022-09-12T04:54:09;22.10;68.20
40538;DHT22;27925;41.874;12.526;2022-09-12T04:56:44;22.10;68.20
40538;DHT22;27925;41.874;12.526;2022-09-12T04:59:11;22.00;68.50
40538;DHT22;27925;41.874;12.526;2022-09-12T05:01:37;22.00;68.60
40538;DHT22;27925;41.874;12.526;2022-09-12T05:04:03;21.90;69.10
40538;DHT22;27925;41.874;12.526;2022-09-12T05:06:32;21.90;68.60
40538;DHT22;27925;41.874;12.526;2022-09-12T05:08:59;22.00;68.80
40538;DHT22;27925;41.874;12.526;2022-09-12T05:11:28;22.00;68.80
40538;DHT22;27925;41.874;12.526;2022-09-12T05:13:54;22.00;69.70
40538;DHT22;27925;41.874;12.526;2022-09-12T05:16:21;22.00;69.00
40538;DHT22;27925;41.874;12.526;2022-09-12T05:18:48;22.00;69.00
40538;DHT22;27925;41.874;12.526;2022-09-12T05:21:17;22.00;69.20
40538;DHT22;27925;41.874;12.526;2022-09-12T05:23:43;22.00;69.30
40538;DHT22;27925;41.874;12.526;2022-09-12T05:26:14;22.00;69.20
40538;DHT22;27925;41.874;12.526;2022-09-12T05:28:41;22.00;69.10
40538;DHT22;27925;41.874;12.526;2022-09-12T05:33:38;22.10;68.90
40538;DHT22;27925;41.874;12.526;2022-09-12T05:36:05;22.10;69.00
40538;DHT22;27925;41.874;12.526;2022-09-12T05:38:36;22.10;68.90
40538;DHT22;27925;41.874;12.526;2022-09-12T05:43:33;22.30;69.00
40538;DHT22;27925;41.874;12.526;2022-09-12T05:46:03;22.30;68.90
40538;DHT22;27925;41.874;12.526;2022-09-12T05:48:29;22.30;68.70
40538;DHT22;27925;41.874;12.526;2022-09-12T05:51:03;22.40;68.80
40538;DHT22;27925;41.874;12.526;2022-09-12T05:53:31;22.60;68.20
40538;DHT22;27925;41.874;12.526;2022-09-12T05:56:08;22.70;68.60
40538;DHT22;27925;41.874;12.526;2022-09-12T05:58:35;22.90;67.50
40538;DHT22;27925;41.874;12.526;2022-09-12T06:01:10;23.00;68.10
40538;DHT22;27925;41.874;12.526;2022-09-12T06:03:42;23.10;66.70
40538;DHT22;27925;41.874;12.526;2022-09-12T06:06:09;23.30;67.80
40538;DHT22;27925;41.874;12.526;2022-09-12T06:08:39;23.40;67.00
40538;DHT22;27925;41.874;12.526;2022-09-12T06:11:06;23.50;66.60
40538;DHT22;27925;41.874;12.526;2022-09-12T06:13:33;23.50;66.40
40538;DHT22;27925;41.874;12.526;2022-09-12T06:16:07;23.60;66.40
40538;DHT22;27925;41.874;12.526;2022-09-12T06:18:34;23.70;66.30
40538;DHT22;27925;41.874;12.526;2022-09-12T06:21:08;23.90;65.80
40538;DHT22;27925;41.874;12.526;2022-09-12T06:23:34;24.00;64.50
40538;DHT22;27925;41.874;12.526;2022-09-12T06:26:00;24.20;65.00
40538;DHT22;27925;41.874;12.526;2022-09-12T06:28:27;24.40;64.70
40538;DHT22;27925;41.874;12.526;2022-09-12T06:30:53;24.50;64.30
40538;DHT22;27925;41.874;12.526;2022-09-12T06:33:18;24.70;63.70
40538;DHT22;27925;41.874;12.526;2022-09-12T06:35:45;24.80;63.10
40538;DHT22;27925;41.874;12.526;2022-09-12T06:38:10;24.90;63.40
40538;DHT22;27925;41.874;12.526;2022-09-12T06:40:42;25.00;62.30
40538;DHT22;27925;41.874;12.526;2022-09-12T06:43:11;25.10;62.50
40538;DHT22;27925;41.874;12.526;2022-09-12T06:45:38;25.10;62.10
40538;DHT22;27925;41.874;12.526;2022-09-12T06:48:04;25.20;61.70
40538;DHT22;27925;41.874;12.526;2022-09-12T06:50:30;25.30;61.90
40538;DHT22;27925;41.874;12.526;2022-09-12T06:52:56;25.30;61.40
40538;DHT22;27925;41.874;12.526;2022-09-12T06:55:21;25.20;61.00
40538;DHT22;27925;41.874;12.526;2022-09-12T06:57:49;25.30;61.10
40538;DHT22;27925;41.874;12.526;2022-09-12T07:00:15;25.40;60.80
40538;DHT22;27925;41.874;12.526;2022-09-12T07:02:40;25.40;60.70
40538;DHT22;27925;41.874;12.526;2022-09-12T07:05:06;25.50;60.50
40538;DHT22;27925;41.874;12.526;2022-09-12T07:07:33;25.60;60.40
40538;DHT22;27925;41.874;12.526;2022-09-12T07:10:00;25.50;60.30
40538;DHT22;27925;41.874;12.526;2022-09-12T07:12:27;25.70;60.30
40538;DHT22;27925;41.874;12.526;2022-09-12T07:14:54;25.80;59.90
40538;DHT22;27925;41.874;12.526;2022-09-12T07:17:19;25.80;59.60
40538;DHT22;27925;41.874;12.526;2022-09-12T07:19:45;25.90;59.90
40538;DHT22;27925;41.874;12.526;2022-09-12T07:22:10;26.00;59.60
40538;DHT22;27925;41.874;12.526;2022-09-12T07:24:36;26.10;59.40
40538;DHT22;27925;41.874;12.526;2022-09-12T07:27:03;26.30;58.70
40538;DHT22;27925;41.874;12.526;2022-09-12T07:29:28;26.30;58.10
40538;DHT22;27925;41.874;12.526;2022-09-12T07:31:54;26.30;57.80
40538;DHT22;27925;41.874;12.526;2022-09-12T07:34:20;26.40;57.80
40538;DHT22;27925;41.874;12.526;2022-09-12T07:36:45;26.50;57.40
40538;DHT22;27925;41.874;12.526;2022-09-12T07:39:11;26.40;57.30
40538;DHT22;27925;41.874;12.526;2022-09-12T07:41:37;26.30;56.90
40538;DHT22;27925;41.874;12.526;2022-09-12T07:44:03;26.40;57.20
40538;DHT22;27925;41.874;12.526;2022-09-12T07:46:31;26.50;57.30
40538;DHT22;27925;41.874;12.526;2022-09-12T07:48:58;26.50;57.00
40538;DHT22;27925;41.874;12.526;2022-09-12T07:51:25;26.50;57.00
40538;DHT22;27925;41.874;12.526;2022-09-12T07:53:51;26.50;57.20
40538;DHT22;27925;41.874;12.526;2022-09-12T07:56:18;26.50;57.30
40538;DHT22;27925;41.874;12.526;2022-09-12T07:58:44;26.40;57.30
40538;DHT22;27925;41.874;12.526;2022-09-12T08:01:12;26.40;57.40
40538;DHT22;27925;41.874;12.526;2022-09-12T08:03:40;26.40;57.40
40538;DHT22;27925;41.874;12.526;2022-09-12T08:06:14;26.40;57.30
40538;DHT22;27925;41.874;12.526;2022-09-12T08:08:41;26.30;57.40
40538;DHT22;27925;41.874;12.526;2022-09-12T08:11:08;26.30;57.70
40538;DHT22;27925;41.874;12.526;2022-09-12T08:13:36;26.30;57.80
40538;DHT22;27925;41.874;12.526;2022-09-12T08:16:07;26.30;57.80
40538;DHT22;27925;41.874;12.526;2022-09-12T08:18:35;26.20;58.00
40538;DHT22;27925;41.874;12.526;2022-09-12T08:21:05;26.30;58.30
40538;DHT22;27925;41.874;12.526;2022-09-12T08:23:31;26.30;57.90
40538;DHT22;27925;41.874;12.526;2022-09-12T08:25:58;26.30;58.10
40538;DHT22;27925;41.874;12.526;2022-09-12T08:28:26;26.30;58.50
40538;DHT22;27925;41.874;12.526;2022-09-12T08:30:52;26.30;58.40
40538;DHT22;27925;41.874;12.526;2022-09-12T08:33:19;26.30;58.30
40538;DHT22;27925;41.874;12.526;2022-09-12T08:35:46;26.40;58.70
40538;DHT22;27925;41.874;12.526;2022-09-12T08:38:12;26.40;58.70
40538;DHT22;27925;41.874;12.526;2022-09-12T08:40:49;26.40;58.60
40538;DHT22;27925;41.874;12.526;2022-09-12T08:46:12;26.50;58.80
40538;DHT22;27925;41.874;12.526;2022-09-12T08:48:44;26.50;58.70
40538;DHT22;27925;41.874;12.526;2022-09-12T08:51:14;26.50;58.70
40538;DHT22;27925;41.874;12.526;2022-09-12T08:53:41;26.50;58.90
40538;DHT22;27925;41.874;12.526;2022-09-12T08:56:08;26.60;58.90
40538;DHT22;27925;41.874;12.526;2022-09-12T08:58:39;26.60;58.80
40538;DHT22;27925;41.874;12.526;2022-09-12T09:01:29;26.70;59.00
40538;DHT22;27925;41.874;12.526;2022-09-12T09:13:11;26.70;59.20
40538;DHT22;27925;41.874;12.526;2022-09-12T09:16:04;26.80;59.20
40538;DHT22;27925;41.874;12.526;2022-09-12T09:18:34;26.80;59.00
40538;DHT22;27925;41.874;12.526;2022-09-12T09:21:04;26.90;59.10
40538;DHT22;27925;41.874;12.526;2022-09-12T09:23:45;26.90;59.10
40538;DHT22;27925;41.874;12.526;2022-09-12T09:26:19;27.00;58.90
40538;DHT22;27925;41.874;12.526;2022-09-12T09:28:58;27.10;58.70
40538;DHT22;27925;41.874;12.526;2022-09-12T09:31:32;27.10;58.60
40538;DHT22;27925;41.874;12.526;2022-09-12T09:34:00;27.20;58.50
40538;DHT22;27925;41.874;12.526;2022-09-12T09:42:29;27.30;57.80
40538;DHT22;27925;41.874;12.526;2022-09-12T09:44:58;27.40;57.40
40538;DHT22;27925;41.874;12.526;2022-09-12T09:47:25;27.40;57.50
40538;DHT22;27925;41.874;12.526;2022-09-12T09:49:50;27.50;57.10
40538;DHT22;27925;41.874;12.526;2022-09-12T09:52:23;27.50;57.00
40538;DHT22;27925;41.874;12.526;2022-09-12T09:54:52;27.60;56.80
40538;DHT22;27925;41.874;12.526;2022-09-12T10:00:31;27.70;56.30
40538;DHT22;27925;41.874;12.526;2022-09-12T10:03:01;27.80;56.30
40538;DHT22;27925;41.874;12.526;2022-09-12T10:05:29;27.90;56.10
40538;DHT22;27925;41.874;12.526;2022-09-12T10:07:57;28.00;55.90
40538;DHT22;27925;41.874;12.526;2022-09-12T10:10:23;28.00;55.20
40538;DHT22;27925;41.874;12.526;2022-09-12T10:12:50;28.20;54.40
40538;DHT22;27925;41.874;12.526;2022-09-12T10:15:22;28.20;53.30
40538;DHT22;27925;41.874;12.526;2022-09-12T10:17:49;28.30;52.90
40538;DHT22;27925;41.874;12.526;2022-09-12T10:20:38;28.30;52.50
40538;DHT22;27925;41.874;12.526;2022-09-12T10:23:29;28.40;50.60
40538;DHT22;27925;41.874;12.526;2022-09-12T10:26:00;28.40;50.50
40538;DHT22;27925;41.874;12.526;2022-09-12T10:28:35;28.50;51.20
40538;DHT22;27925;41.874;12.526;2022-09-12T10:31:01;28.50;50.70
40538;DHT22;27925;41.874;12.526;2022-09-12T10:33:28;28.60;49.70
40538;DHT22;27925;41.874;12.526;2022-09-12T10:35:54;28.70;49.70
40538;DHT22;27925;41.874;12.526;2022-09-12T10:38:26;28.80;49.20
40538;DHT22;27925;41.874;12.526;2022-09-12T10:41:05;28.80;48.10
40538;DHT22;27925;41.874;12.526;2022-09-12T10:45:59;29.00;47.40
40538;DHT22;27925;41.874;12.526;2022-09-12T10:48:46;29.10;47.70
40538;DHT22;27925;41.874;12.526;2022-09-12T10:53:50;29.20;46.70
40538;DHT22;27925;41.874;12.526;2022-09-12T10:56:30;29.30;46.00
40538;DHT22;27925;41.874;12.526;2022-09-12T10:59:00;29.50;42.70
40538;DHT22;27925;41.874;12.526;2022-09-12T11:06:56;29.80;39.60
40538;DHT22;27925;41.874;12.526;2022-09-12T11:12:16;30.00;39.80
40538;DHT22;27925;41.874;12.526;2022-09-12T11:17:59;30.20;39.50
40538;DHT22;27925;41.874;12.526;2022-09-12T11:20:40;30.30;39.60
40538;DHT22;27925;41.874;12.526;2022-09-12T11:31:56;30.60;37.90
40538;DHT22;27925;41.874;12.526;2022-09-12T11:34:39;30.60;37.40
40538;DHT22;27925;41.874;12.526;2022-09-12T11:40:27;30.70;38.10
40538;DHT22;27925;41.874;12.526;2022-09-12T11:43:02;30.70;37.90
40538;DHT22;27925;41.874;12.526;2022-09-12T11:45:35;30.70;37.20
40538;DHT22;27925;41.874;12.526;2022-09-12T11:48:07;30.80;36.90
40538;DHT22;27925;41.874;12.526;2022-09-12T11:50:36;30.80;36.70
40538;DHT22;27925;41.874;12.526;2022-09-12T11:53:18;30.70;36.70
40538;DHT22;27925;41.874;12.526;2022-09-12T11:58:31;30.80;38.10
40538;DHT22;27925;41.874;12.526;2022-09-12T12:01:22;30.90;41.00
40538;DHT22;27925;41.874;12.526;2022-09-12T12:03:49;31.10;41.00
40538;DHT22;27925;41.874;12.526;2022-09-12T12:06:29;31.10;42.30
40538;DHT22;27925;41.874;12.526;2022-09-12T12:08:56;31.20;41.60
40538;DHT22;27925;41.874;12.526;2022-09-12T12:11:31;31.30;41.70
40538;DHT22;27925;41.874;12.526;2022-09-12T12:14:02;31.40;41.40
40538;DHT22;27925;41.874;12.526;2022-09-12T12:16:33;31.50;41.20
40538;DHT22;27925;41.874;12.526;2022-09-12T12:21:41;31.50;40.80
40538;DHT22;27925;41.874;12.526;2022-09-12T12:34:38;31.80;45.00
40538;DHT22;27925;41.874;12.526;2022-09-12T12:48:07;32.10;47.80
40538;DHT22;27925;41.874;12.526;2022-09-12T12:50:34;32.20;46.70
40538;DHT22;27925;41.874;12.526;2022-09-12T12:53:04;32.20;47.90
40538;DHT22;27925;41.874;12.526;2022-09-12T12:58:30;32.20;46.40
40538;DHT22;27925;41.874;12.526;2022-09-12T13:01:04;32.10;47.80
40538;DHT22;27925;41.874;12.526;2022-09-12T13:03:32;31.90;47.90
40538;DHT22;27925;41.874;12.526;2022-09-12T13:06:04;31.90;48.10
40538;DHT22;27925;41.874;12.526;2022-09-12T13:08:38;31.80;48.50
40538;DHT22;27925;41.874;12.526;2022-09-12T13:11:13;31.70;48.50
40538;DHT22;27925;41.874;12.526;2022-09-12T13:16:11;31.40;48.70
40538;DHT22;27925;41.874;12.526;2022-09-12T13:18:53;31.30;49.30
40538;DHT22;27925;41.874;12.526;2022-09-12T13:21:19;31.10;49.20
40538;DHT22;27925;41.874;12.526;2022-09-12T13:24:32;31.00;49.70
40538;DHT22;27925;41.874;12.526;2022-09-12T13:26:51;30.70;49.00
40538;DHT22;27925;41.874;12.526;2022-09-12T13:29:23;30.50;50.70
40538;DHT22;27925;41.874;12.526;2022-09-12T13:31:55;30.30;51.30
40538;DHT22;27925;41.874;12.526;2022-09-12T13:34:25;30.20;51.50
40538;DHT22;27925;41.874;12.526;2022-09-12T13:39:47;30.10;50.40
40538;DHT22;27925;41.874;12.526;2022-09-12T13:45:00;30.40;51.50
40538;DHT22;27925;41.874;12.526;2022-09-12T13:47:34;30.60;51.40
40538;DHT22;27925;41.874;12.526;2022-09-12T13:50:02;30.80;51.10
40538;DHT22;27925;41.874;12.526;2022-09-12T13:52:32;31.10;50.70
40538;DHT22;27925;41.874;12.526;2022-09-12T13:54:59;31.20;50.50
40538;DHT22;27925;41.874;12.526;2022-09-12T13:57:33;31.30;50.30
40538;DHT22;27925;41.874;12.526;2022-09-12T14:00:11;31.40;48.90
40538;DHT22;27925;41.874;12.526;2022-09-12T14:02:40;31.50;48.70
40538;DHT22;27925;41.874;12.526;2022-09-12T14:05:20;31.60;49.90
40538;DHT22;27925;41.874;12.526;2022-09-12T14:07:58;31.60;49.80
40538;DHT22;27925;41.874;12.526;2022-09-12T14:10:37;31.60;49.90
40538;DHT22;27925;41.874;12.526;2022-09-12T14:13:10;31.50;50.10
40538;DHT22;27925;41.874;12.526;2022-09-12T14:15:36;31.50;50.20
40538;DHT22;27925;41.874;12.526;2022-09-12T14:18:04;31.50;49.80
40538;DHT22;27925;41.874;12.526;2022-09-12T14:20:35;31.50;49.90
40538;DHT22;27925;41.874;12.526;2022-09-12T14:25:48;31.50;48.40
40538;DHT22;27925;41.874;12.526;2022-09-12T14:28:15;31.50;49.70
40538;DHT22;27925;41.874;12.526;2022-09-12T14:33:23;31.60;49.50
40538;DHT22;27925;41.874;12.526;2022-09-12T14:35:51;31.60;49.50
40538;DHT22;27925;41.874;12.526;2022-09-12T14:39:03;31.60;49.60
40538;DHT22;27925;41.874;12.526;2022-09-12T14:41:08;31.60;49.90
40538;DHT22;27925;41.874;12.526;2022-09-12T14:43:36;31.50;49.80
40538;DHT22;27925;41.874;12.526;2022-09-12T14:46:07;31.50;49.70
40538;DHT22;27925;41.874;12.526;2022-09-12T14:48:43;31.50;48.60
40538;DHT22;27925;41.874;12.526;2022-09-12T14:51:34;31.40;49.80
40538;DHT22;27925;41.874;12.526;2022-09-12T14:54:02;31.40;49.60
40538;DHT22;27925;41.874;12.526;2022-09-12T14:56:40;31.30;49.70
40538;DHT22;27925;41.874;12.526;2022-09-12T15:09:59;31.40;48.30
40538;DHT22;27925;41.874;12.526;2022-09-12T15:12:25;31.40;48.40
40538;DHT22;27925;41.874;12.526;2022-09-12T15:14:51;31.40;50.00
40538;DHT22;27925;41.874;12.526;2022-09-12T15:17:17;31.50;50.10
40538;DHT22;27925;41.874;12.526;2022-09-12T15:19:43;31.50;50.00
40538;DHT22;27925;41.874;12.526;2022-09-12T15:22:11;31.50;49.90
40538;DHT22;27925;41.874;12.526;2022-09-12T15:24:37;31.50;50.00
40538;DHT22;27925;41.874;12.526;2022-09-12T15:27:09;31.50;49.70
40538;DHT22;27925;41.874;12.526;2022-09-12T15:29:36;31.50;49.70
40538;DHT22;27925;41.874;12.526;2022-09-12T15:32:01;31.40;49.60
40538;DHT22;27925;41.874;12.526;2022-09-12T15:34:28;31.40;49.50
40538;DHT22;27925;41.874;12.526;2022-09-12T15:36:54;31.30;49.60
40538;DHT22;27925;41.874;12.526;2022-09-12T15:39:19;31.20;49.40
40538;DHT22;27925;41.874;12.526;2022-09-12T15:41:46;31.20;49.50
40538;DHT22;27925;41.874;12.526;2022-09-12T15:44:12;31.20;49.20
40538;DHT22;27925;41.874;12.526;2022-09-12T15:46:38;31.20;49.30
40538;DHT22;27925;41.874;12.526;2022-09-12T15:49:04;31.10;49.50
40538;DHT22;27925;41.874;12.526;2022-09-12T15:51:32;31.10;49.70
40538;DHT22;27925;41.874;12.526;2022-09-12T15:53:58;31.00;50.30
40538;DHT22;27925;41.874;12.526;2022-09-12T15:56:24;31.00;50.50
40538;DHT22;27925;41.874;12.526;2022-09-12T15:58:50;30.90;50.70
40538;DHT22;27925;41.874;12.526;2022-09-12T16:01:17;30.90;50.90
40538;DHT22;27925;41.874;12.526;2022-09-12T16:03:45;30.80;51.40
40538;DHT22;27925;41.874;12.526;2022-09-12T16:06:11;30.70;51.60
40538;DHT22;27925;41.874;12.526;2022-09-12T16:08:39;30.60;51.90
40538;DHT22;27925;41.874;12.526;2022-09-12T16:11:16;30.60;52.30
40538;DHT22;27925;41.874;12.526;2022-09-12T16:13:43;30.60;52.50
40538;DHT22;27925;41.874;12.526;2022-09-12T16:16:08;30.60;52.50
40538;DHT22;27925;41.874;12.526;2022-09-12T16:18:35;30.60;52.60
40538;DHT22;27925;41.874;12.526;2022-09-12T16:21:00;30.60;52.80
40538;DHT22;27925;41.874;12.526;2022-09-12T16:23:26;30.50;52.90
40538;DHT22;27925;41.874;12.526;2022-09-12T16:25:58;30.40;53.10
40538;DHT22;27925;41.874;12.526;2022-09-12T16:28:25;30.30;53.60
40538;DHT22;27925;41.874;12.526;2022-09-12T16:30:59;30.20;53.90
40538;DHT22;27925;41.874;12.526;2022-09-12T16:33:25;30.10;54.00
40538;DHT22;27925;41.874;12.526;2022-09-12T16:35:52;30.00;54.40
40538;DHT22;27925;41.874;12.526;2022-09-12T16:38:21;29.90;54.40
40538;DHT22;27925;41.874;12.526;2022-09-12T16:40:47;29.80;55.10
40538;DHT22;27925;41.874;12.526;2022-09-12T16:43:13;29.80;55.30
40538;DHT22;27925;41.874;12.526;2022-09-12T16:45:43;29.70;55.50
40538;DHT22;27925;41.874;12.526;2022-09-12T16:48:09;29.60;54.60
40538;DHT22;27925;41.874;12.526;2022-09-12T16:50:35;29.60;56.10
40538;DHT22;27925;41.874;12.526;2022-09-12T16:53:00;29.50;56.20
40538;DHT22;27925;41.874;12.526;2022-09-12T16:55:26;29.50;56.50
40538;DHT22;27925;41.874;12.526;2022-09-12T16:57:55;29.40;56.70
40538;DHT22;27925;41.874;12.526;2022-09-12T17:00:21;29.30;56.20
40538;DHT22;27925;41.874;12.526;2022-09-12T17:02:46;29.10;57.10
40538;DHT22;27925;41.874;12.526;2022-09-12T17:05:13;29.10;57.30
40538;DHT22;27925;41.874;12.526;2022-09-12T17:07:41;29.00;57.90
40538;DHT22;27925;41.874;12.526;2022-09-12T17:10:07;28.90;57.90
40538;DHT22;27925;41.874;12.526;2022-09-12T17:12:33;28.80;58.30
40538;DHT22;27925;41.874;12.526;2022-09-12T17:14:59;28.80;58.90
40538;DHT22;27925;41.874;12.526;2022-09-12T17:17:25;28.70;59.00
40538;DHT22;27925;41.874;12.526;2022-09-12T17:19:50;28.60;59.40
40538;DHT22;27925;41.874;12.526;2022-09-12T17:22:17;28.50;59.90
40538;DHT22;27925;41.874;12.526;2022-09-12T17:24:43;28.50;60.10
40538;DHT22;27925;41.874;12.526;2022-09-12T17:27:09;28.40;60.60
40538;DHT22;27925;41.874;12.526;2022-09-12T17:29:34;28.40;61.20
40538;DHT22;27925;41.874;12.526;2022-09-12T17:32:01;28.30;61.60
40538;DHT22;27925;41.874;12.526;2022-09-12T17:34:27;28.30;61.80
40538;DHT22;27925;41.874;12.526;2022-09-12T17:36:53;28.20;62.00
40538;DHT22;27925;41.874;12.526;2022-09-12T17:39:20;28.10;62.50
40538;DHT22;27925;41.874;12.526;2022-09-12T17:41:45;28.00;62.70
40538;DHT22;27925;41.874;12.526;2022-09-12T17:44:13;28.00;62.60
40538;DHT22;27925;41.874;12.526;2022-09-12T17:46:39;27.90;62.50
40538;DHT22;27925;41.874;12.526;2022-09-12T17:49:13;27.80;62.50
40538;DHT22;27925;41.874;12.526;2022-09-12T17:51:39;27.80;62.70
40538;DHT22;27925;41.874;12.526;2022-09-12T17:54:11;27.70;62.80